Weather at Skopje International Airport

Public forecast

Using degrees Celsius for public forecast. Weather courtesy of forecast.io.

Current aviation weather report (METAR) for Skopje International Airport

2024/02/24 14:30 (retrieved 48 minutes ago)

LWSK 241430Z 13010KT 9999 BKN070 16/07 Q1015 NOSIG

Aviation forecast (TAF) for Skopje International Airport

2024/02/24 15:36 (retrieved 0 seconds ago)

TAF LWSK 241430Z 2415/2515 14010KT 9999 BKN070 TEMPO 2415/2420 15015G25KT